Time;durP1;ratioP1;P1;durP2;ratioP2;P2;SDS_P1;SDS_P2;PMS_P1;PMS_P2;Temp;Humidity;BMP_temperature;BMP_pressure;BME280_temperature;BME280_humidity;BME280_pressure;Samples;Min_cycle;Max_cycle;Signal;HPM_P1;HPM_P2
2023/12/26 00:01:46;;;;;;;10.57;6.70;;;;;;;0.83;100.00;96308.88;4983907;28;20049;-58
2023/12/26 00:04:12;;;;;;;9.27;5.77;;;;;;;0.95;100.00;96314.47;4984166;28;20083;-59
2023/12/26 00:06:40;;;;;;;10.33;6.50;;;;;;;0.93;100.00;96316.44;4996311;28;20052;-61
2023/12/26 00:09:06;;;;;;;8.00;5.00;;;;;;;1.03;100.00;96309.16;5036562;28;20076;-60
2023/12/26 00:11:31;;;;;;;9.20;5.93;;;;;;;0.95;100.00;96314.47;5003556;28;20080;-59
2023/12/26 00:13:57;;;;;;;11.50;6.47;;;;;;;0.82;100.00;96306.44;5020373;28;20044;-57
2023/12/26 00:16:23;;;;;;;12.07;7.50;;;;;;;0.85;100.00;96306.88;5020129;28;20052;-59
2023/12/26 00:18:49;;;;;;;14.70;8.70;;;;;;;0.62;100.00;96308.75;5035959;28;20055;-59
2023/12/26 00:21:15;;;;;;;14.63;8.27;;;;;;;0.63;100.00;96301.75;5036392;28;20397;-57
2023/12/26 00:23:41;;;;;;;15.27;8.67;;;;;;;0.63;100.00;96294.69;5036421;28;20070;-58
2023/12/26 00:26:07;;;;;;;14.83;8.50;;;;;;;0.62;100.00;96297.50;5040555;28;20044;-56
2023/12/26 00:28:32;;;;;;;11.37;7.40;;;;;;;0.66;100.00;96298.78;5073705;28;20063;-56
2023/12/26 00:30:59;;;;;;;12.20;7.17;;;;;;;0.74;100.00;96293.47;5040558;28;20047;-64
2023/12/26 00:33:25;;;;;;;13.13;8.03;;;;;;;0.69;100.00;96286.16;5056898;28;20482;-58
2023/12/26 00:35:50;;;;;;;12.37;7.10;;;;;;;0.69;100.00;96283.53;5055874;28;20105;-59
2023/12/26 00:38:18;;;;;;;15.10;8.40;;;;;;;0.68;100.00;96291.56;5040126;28;20070;-57
2023/12/26 00:40:44;;;;;;;11.23;7.03;;;;;;;0.75;100.00;96276.81;5056126;28;20083;-57
2023/12/26 00:43:11;;;;;;;13.10;7.17;;;;;;;0.80;100.00;96284.94;5073103;28;20608;-56
2023/12/26 00:45:37;;;;;;;10.57;7.03;;;;;;;0.85;100.00;96282.56;5056005;28;20068;-60
2023/12/26 00:48:03;;;;;;;12.13;7.17;;;;;;;0.89;100.00;96278.63;5072925;28;20040;-56
2023/12/26 00:50:29;;;;;;;11.57;6.73;;;;;;;0.78;100.00;96276.44;5059028;28;20044;-61
2023/12/26 00:52:55;;;;;;;11.77;6.83;;;;;;;0.84;100.00;96286.19;5044272;28;20048;-61
2023/12/26 00:55:25;;;;;;;12.23;7.57;;;;;;;0.73;100.00;96276.16;5077451;28;20040;-56
2023/12/26 00:57:51;;;;;;;13.93;8.17;;;;;;;0.75;100.00;96282.03;5076629;28;20082;-60
2023/12/26 01:00:17;;;;;;;12.33;7.50;;;;;;;0.73;100.00;96284.00;5042063;28;20075;-56
2023/12/26 01:02:44;;;;;;;12.33;7.53;;;;;;;0.72;100.00;96279.78;5042085;28;20047;-57
2023/12/26 01:05:11;;;;;;;13.00;7.50;;;;;;;0.70;100.00;96286.97;5041966;28;20040;-60
2023/12/26 01:07:37;;;;;;;14.33;7.77;;;;;;;0.66;100.00;96276.06;5058181;28;20055;-59
2023/12/26 01:10:05;;;;;;;11.37;6.93;;;;;;;0.73;100.00;96274.38;5058266;28;20044;-60
2023/12/26 01:12:30;;;;;;;12.93;7.70;;;;;;;0.74;100.00;96276.00;5075371;28;20104;-61
2023/12/26 01:14:56;;;;;;;16.83;8.17;;;;;;;0.76;100.00;96271.41;5059387;28;20502;-62
2023/12/26 01:17:22;;;;;;;13.80;8.47;;;;;;;0.75;100.00;96282.03;5060491;28;20043;-60
2023/12/26 01:19:48;;;;;;;10.57;6.37;;;;;;;0.83;100.00;96272.31;5060406;28;20047;-58
2023/12/26 01:22:13;;;;;;;12.80;7.33;;;;;;;0.83;100.00;96282.75;5044086;28;20050;-58
2023/12/26 01:24:39;;;;;;;14.37;8.10;;;;;;;0.86;100.00;96281.59;5038897;28;20048;-62
2023/12/26 01:27:05;;;;;;;12.23;7.00;;;;;;;0.88;100.00;96277.81;5039205;28;20055;-58
2023/12/26 01:29:30;;;;;;;13.20;6.80;;;;;;;0.93;100.00;96277.25;5039022;28;20135;-59
2023/12/26 01:31:57;;;;;;;12.43;7.10;;;;;;;0.97;100.00;96283.75;5022902;28;20040;-55
2023/12/26 01:34:23;;;;;;;11.00;6.97;;;;;;;1.04;100.00;96269.78;5055746;28;20080;-55
2023/12/26 01:36:48;;;;;;;12.27;6.90;;;;;;;1.00;100.00;96267.72;5022487;28;20505;-59
2023/12/26 01:39:15;;;;;;;12.30;7.47;;;;;;;0.98;100.00;96269.69;5039043;28;20052;-59
2023/12/26 01:41:42;;;;;;;11.80;7.30;;;;;;;0.99;100.00;96266.91;5038791;28;20464;-60
2023/12/26 01:44:07;;;;;;;11.60;7.13;;;;;;;0.98;100.00;96267.09;5038836;28;20080;-60
2023/12/26 01:46:33;;;;;;;14.40;8.27;;;;;;;1.02;100.00;96268.34;5022415;28;20082;-57
2023/12/26 01:49:00;;;;;;;11.17;6.90;;;;;;;0.96;100.00;96258.63;5039197;28;20044;-58
2023/12/26 01:51:27;;;;;;;11.73;7.50;;;;;;;1.05;100.00;96250.50;5039126;28;20524;-56
2023/12/26 01:53:53;;;;;;;17.37;8.83;;;;;;;0.98;100.00;96262.69;5022307;28;20541;-58
2023/12/26 01:56:21;;;;;;;12.07;7.47;;;;;;;1.08;100.00;96265.00;5051131;28;20056;-60
2023/12/26 01:58:48;;;;;;;10.07;5.80;;;;;;;1.28;100.00;96266.06;5076378;28;20036;-56
2023/12/26 02:01:14;;;;;;;9.47;6.07;;;;;;;1.27;100.00;96267.88;5042109;28;20040;-57
2023/12/26 02:03:41;;;;;;;12.67;7.77;;;;;;;1.27;100.00;96256.59;5076162;28;20043;-61
2023/12/26 02:06:09;;;;;;;12.30;7.23;;;;;;;1.25;100.00;96267.25;5059667;28;20044;-60
2023/12/26 02:08:37;;;;;;;9.43;6.33;;;;;;;1.36;100.00;96258.13;5043209;28;20074;-56
2023/12/26 02:11:04;;;;;;;10.53;6.20;;;;;;;1.35;100.00;96264.34;5059737;28;20044;-62
2023/12/26 02:13:30;;;;;;;7.70;5.63;;;;;;;1.37;100.00;96271.00;5043130;28;20032;-59
2023/12/26 02:15:57;;;;;;;11.40;6.87;;;;;;;1.34;100.00;96267.94;5042674;28;20146;-61
2023/12/26 02:18:24;;;;;;;11.87;7.20;;;;;;;1.27;100.00;96264.44;5059542;28;20097;-59
2023/12/26 02:21:11;;;;;;;10.63;6.70;;;;;;;1.30;100.00;96264.91;5065016;28;20116;-58
2023/12/26 02:23:38;;;;;;;10.00;6.53;;;;;;;1.38;100.00;96264.00;5042703;28;20074;-57
2023/12/26 02:26:05;;;;;;;9.30;5.90;;;;;;;1.43;100.00;96262.44;5075931;28;20052;-58
2023/12/26 02:28:33;;;;;;;8.93;5.93;;;;;;;1.44;100.00;96264.06;5059973;28;20051;-60
2023/12/26 02:31:02;;;;;;;9.90;6.30;;;;;;;1.53;100.00;96275.22;5042751;28;20142;-59
2023/12/26 02:33:32;;;;;;;9.77;6.55;;;;;;;1.41;100.00;96274.06;5059629;28;20086;-60
2023/12/26 02:35:59;;;;;;;10.67;7.10;;;;;;;1.31;100.00;96273.53;5075793;28;20134;-57
2023/12/26 02:38:25;;;;;;;10.27;6.53;;;;;;;1.29;100.00;96275.53;5059000;28;20044;-56
2023/12/26 02:40:52;;;;;;;12.60;7.00;;;;;;;1.33;100.00;96274.16;5059059;28;20048;-58
2023/12/26 02:43:22;;;;;;;10.67;6.57;;;;;;;1.43;100.00;96279.94;5058925;28;20046;-60
2023/12/26 02:45:49;;;;;;;11.20;7.13;;;;;;;1.25;100.00;96274.25;5058527;28;20147;-58
2023/12/26 02:48:19;;;;;;;10.37;6.33;;;;;;;1.37;100.00;96275.41;5058902;28;20286;-57
2023/12/26 02:50:45;;;;;;;;;;;;;;;1.50;100.00;96283.44;5059049;28;20067;-58
2023/12/26 02:53:11;;;;;;;13.07;7.43;;;;;;;1.33;100.00;96276.78;5075201;28;19959;-57
2023/12/26 02:55:38;;;;;;;10.97;5.97;;;;;;;1.34;100.00;96283.63;5050772;28;20064;-59
2023/12/26 02:58:04;;;;;;;13.63;8.30;;;;;;;1.25;100.00;96279.50;5051074;28;20089;-56
2023/12/26 03:00:30;;;;;;;11.27;7.00;;;;;;;1.20;100.00;96282.66;5001194;28;20059;-57
2023/12/26 03:02:56;;;;;;;14.13;7.73;;;;;;;1.18;100.00;96278.63;4984894;28;20040;-56
2023/12/26 03:05:23;;;;;;;10.90;6.97;;;;;;;1.16;100.00;96265.72;5017578;28;20151;-55
2023/12/26 03:07:49;;;;;;;12.27;6.97;;;;;;;1.26;100.00;96283.75;4984951;28;20045;-56
2023/12/26 03:10:15;;;;;;;11.53;6.67;;;;;;;1.25;100.00;96274.25;4984923;28;20733;-58
2023/12/26 03:12:41;;;;;;;10.20;6.20;;;;;;;1.28;100.00;96279.13;4985106;28;20076;-60
2023/12/26 03:15:08;;;;;;;10.60;6.33;;;;;;;1.31;100.00;96276.97;4984936;28;20048;-58
2023/12/26 03:17:34;;;;;;;10.23;6.77;;;;;;;1.24;100.00;96277.88;5034401;28;20091;-60
2023/12/26 03:20:00;;;;;;;9.07;6.37;;;;;;;1.26;100.00;96281.13;5001045;28;20049;-59
2023/12/26 03:22:25;;;;;;;9.10;5.70;;;;;;;1.28;100.00;96279.13;5033887;28;20561;-55
2023/12/26 03:24:51;;;;;;;9.10;5.83;;;;;;;1.30;100.00;96277.16;4984711;28;20056;-57
2023/12/26 03:27:17;;;;;;;9.53;5.97;;;;;;;1.35;100.00;96277.41;5028999;28;20562;-58
2023/12/26 03:29:43;;;;;;;9.07;5.57;;;;;;;1.36;100.00;96282.47;5057637;28;20046;-56
2023/12/26 03:32:09;;;;;;;9.47;5.67;;;;;;;1.42;100.00;96278.28;5058063;28;20039;-57
2023/12/26 03:34:40;;;;;;;8.47;6.10;;;;;;;1.49;100.00;96277.38;5058328;28;20051;-58
2023/12/26 03:37:06;;;;;;;10.70;6.95;;;;;;;1.37;100.00;96275.41;5057735;28;20154;-57
2023/12/26 03:39:32;;;;;;;8.97;5.87;;;;;;;1.42;100.00;96275.69;5041356;28;20138;-57
2023/12/26 03:41:59;;;;;;;10.53;6.90;;;;;;;1.39;100.00;96282.09;5057534;28;20549;-59
2023/12/26 03:44:25;;;;;;;9.53;6.13;;;;;;;1.39;100.00;96283.91;5040615;28;20147;-57
2023/12/26 03:46:52;;;;;;;11.50;6.73;;;;;;;1.38;100.00;96279.66;5041027;28;20048;-58
2023/12/26 03:49:18;;;;;;;9.70;6.10;;;;;;;1.39;100.00;96284.72;5057558;28;20032;-61
2023/12/26 03:51:46;;;;;;;11.67;6.57;;;;;;;1.40;100.00;96288.13;5040928;28;20151;-58
2023/12/26 03:54:12;;;;;;;11.60;6.23;;;;;;;1.40;100.00;96290.72;5058088;28;20126;-62
2023/12/26 03:56:38;;;;;;;11.87;6.27;;;;;;;1.40;100.00;96295.97;5040517;28;20827;-63
2023/12/26 03:59:04;;;;;;;12.70;7.07;;;;;;;1.41;100.00;96295.00;5057502;28;20105;-56
2023/12/26 04:01:31;;;;;;;12.17;7.20;;;;;;;1.39;100.00;96291.72;5057281;28;20479;-56
2023/12/26 04:03:57;;;;;;;13.17;7.50;;;;;;;1.40;100.00;96295.97;5040403;28;20051;-56
2023/12/26 04:06:23;;;;;;;14.47;8.30;;;;;;;1.37;100.00;96293.72;5074035;28;20044;-59
2023/12/26 04:08:49;;;;;;;13.37;7.33;;;;;;;1.32;100.00;96298.69;5056958;28;20043;-57
2023/12/26 04:11:15;;;;;;;13.63;7.87;;;;;;;1.33;100.00;96290.69;5073824;28;20047;-55
2023/12/26 04:13:40;;;;;;;13.93;8.20;;;;;;;1.33;100.00;96298.50;5057211;28;20051;-54
2023/12/26 04:16:06;;;;;;;13.50;8.80;;;;;;;1.30;100.00;96301.50;5057646;28;20044;-55
2023/12/26 04:18:33;;;;;;;13.47;7.53;;;;;;;1.32;100.00;96293.47;5090552;28;20052;-56
2023/12/26 04:20:59;;;;;;;14.13;8.20;;;;;;;1.33;100.00;96300.31;5057026;28;20040;-56
2023/12/26 04:23:25;;;;;;;14.40;8.10;;;;;;;1.31;100.00;96299.66;5056704;28;20047;-57
2023/12/26 04:25:52;;;;;;;14.00;7.90;;;;;;;1.27;100.00;96304.47;5059867;28;20048;-57
2023/12/26 04:28:18;;;;;;;19.93;10.20;;;;;;;1.30;100.00;96298.06;5061122;28;20035;-59
2023/12/26 04:30:44;;;;;;;16.03;8.60;;;;;;;1.37;100.00;96314.63;5044345;28;20527;-55
2023/12/26 04:33:10;;;;;;;15.17;7.97;;;;;;;1.39;100.00;96310.03;5078073;28;20058;-64
2023/12/26 04:35:36;;;;;;;15.50;8.37;;;;;;;1.48;100.00;96308.94;5061613;28;20043;-55
2023/12/26 04:38:03;;;;;;;16.27;9.10;;;;;;;1.48;100.00;96317.59;5044436;28;20501;-54
2023/12/26 04:40:29;;;;;;;15.10;8.03;;;;;;;1.58;100.00;96314.72;5044566;28;20043;-55
2023/12/26 04:42:57;;;;;;;13.93;7.83;;;;;;;1.64;100.00;96321.81;5077644;28;20529;-58
2023/12/26 04:45:23;;;;;;;17.63;8.70;;;;;;;1.64;100.00;96327.88;5094298;28;20139;-55
2023/12/26 04:47:49;;;;;;;13.70;7.83;;;;;;;1.72;100.00;96326.94;5077644;28;20565;-55
2023/12/26 04:50:15;;;;;;;14.93;7.70;;;;;;;1.78;100.00;96324.38;5077610;28;20506;-56
2023/12/26 04:52:41;;;;;;;12.43;7.23;;;;;;;1.88;100.00;96336.38;5044373;28;20211;-62
2023/12/26 04:55:07;;;;;;;12.07;7.07;;;;;;;1.93;100.00;96342.66;5044523;28;20040;-59
2023/12/26 04:57:37;;;;;;;14.93;7.50;;;;;;;1.95;100.00;96340.69;5060965;28;20131;-56
2023/12/26 05:00:03;;;;;;;18.40;9.70;;;;;;;1.96;100.00;96338.88;5094058;28;20047;-56
2023/12/26 05:02:29;;;;;;;12.97;7.40;;;;;;;2.04;100.00;96349.22;5044538;28;20143;-54
2023/12/26 05:04:55;;;;;;;13.00;7.50;;;;;;;2.09;100.00;96347.66;5060317;28;20044;-56
2023/12/26 05:07:21;;;;;;;10.87;5.93;;;;;;;2.18;100.00;96345.75;5060650;28;20139;-59
2023/12/26 05:09:48;;;;;;;12.17;6.63;;;;;;;2.23;100.00;96346.81;5043909;28;20039;-56
2023/12/26 05:12:14;;;;;;;11.90;6.87;;;;;;;2.24;100.00;96348.44;5060678;28;20048;-56
2023/12/26 05:14:39;;;;;;;11.63;6.57;;;;;;;2.30;100.00;96354.72;5077715;28;20124;-55
2023/12/26 05:17:06;;;;;;;12.70;7.00;;;;;;;2.34;100.00;96362.03;5060072;28;20051;-58
2023/12/26 05:19:31;;;;;;;13.27;7.40;;;;;;;2.36;100.00;96367.88;5060416;28;20544;-55
2023/12/26 05:21:57;;;;;;;12.50;6.87;;;;;;;2.38;100.00;96368.53;5060291;28;20103;-55
2023/12/26 05:24:27;;;;;;;11.33;6.60;;;;;;;2.49;100.00;96365.38;5077258;28;20052;-64
2023/12/26 05:26:54;;;;;;;10.63;6.00;;;;;;;2.51;100.00;96373.06;5062811;28;20131;-65
2023/12/26 05:29:20;;;;;;;10.17;5.33;;;;;;;2.61;100.00;96373.56;5010295;28;21604;-66
2023/12/26 05:31:47;;;;;;;11.13;6.17;;;;;;;2.59;100.00;96381.59;5025369;28;20190;-65
2023/12/26 05:34:13;;;;;;;9.63;5.90;;;;;;;2.64;100.00;96379.25;5010627;28;20052;-63
2023/12/26 05:36:39;;;;;;;9.87;6.00;;;;;;;2.70;100.00;96377.66;4998234;28;20040;-65
2023/12/26 05:39:06;;;;;;;12.17;6.17;;;;;;;2.77;100.00;96387.19;5001213;28;20466;-67
2023/12/26 05:41:33;;;;;;;8.53;5.60;;;;;;;2.81;100.00;96398.13;5012761;28;20035;-68
2023/12/26 05:44:03;;;;;;;12.43;6.22;;;;;;;2.77;100.00;96394.25;4998340;28;20060;-62
2023/12/26 05:46:29;;;;;;;10.53;6.50;;;;;;;2.82;100.00;96404.97;5008069;28;20064;-63
2023/12/26 05:48:55;;;;;;;11.60;6.67;;;;;;;2.81;100.00;96408.59;5025234;28;20040;-59
2023/12/26 05:51:21;;;;;;;11.27;6.67;;;;;;;2.87;100.00;96415.72;5029648;28;20126;-63
2023/12/26 05:53:47;;;;;;;13.03;6.20;;;;;;;2.90;100.00;96418.78;5025318;28;20107;-60
2023/12/26 05:56:12;;;;;;;10.60;5.93;;;;;;;2.91;100.00;96416.94;5008700;28;20062;-63
2023/12/26 05:58:39;;;;;;;9.07;5.30;;;;;;;3.00;100.00;96416.63;5025281;28;20040;-59
2023/12/26 06:01:12;;;;;;;10.37;5.60;;;;;;;3.09;100.00;96412.06;5012321;28;20064;-63
2023/12/26 06:03:40;;;;;;;9.70;5.00;;;;;;;3.02;100.00;96414.63;5038867;28;20094;-60
2023/12/26 06:06:13;;;;;;;13.60;6.13;;;;;;;3.11;100.00;96423.16;5030354;28;20451;-57
2023/12/26 06:08:41;;;;;;;12.20;6.30;;;;;;;3.08;100.00;96434.84;5018014;28;20057;-58
2023/12/26 06:11:10;;;;;;;10.87;6.43;;;;;;;3.16;100.00;96433.91;5036822;28;20061;-61
2023/12/26 06:13:36;;;;;;;10.83;6.40;;;;;;;3.10;100.00;96432.84;5043428;28;20055;-55
2023/12/26 06:16:02;;;;;;;7.97;4.83;;;;;;;3.10;100.00;96427.59;5055540;28;20064;-60
2023/12/26 06:18:30;;;;;;;12.43;6.40;;;;;;;3.21;100.00;96442.78;5038479;28;20059;-55
2023/12/26 06:20:57;;;;;;;7.60;4.83;;;;;;;3.21;100.00;96445.41;5032468;28;20364;-58
2023/12/26 06:23:25;;;;;;;8.97;5.30;;;;;;;3.25;100.00;96448.47;5012635;28;20043;-58
2023/12/26 06:25:51;;;;;;;7.83;5.07;;;;;;;3.30;100.00;96446.94;5047207;28;20136;-60
2023/12/26 06:28:17;;;;;;;10.90;5.27;;;;;;;3.35;100.00;96448.97;5043672;28;20497;-57
2023/12/26 06:30:43;;;;;;;8.67;5.37;;;;;;;3.39;100.00;96455.44;5019971;28;20071;-64
2023/12/26 06:33:09;;;;;;;11.40;6.17;;;;;;;3.41;100.00;96464.72;5027604;28;20128;-60
2023/12/26 06:35:38;;;;;;;8.07;5.07;;;;;;;3.40;100.00;96462.31;5060671;28;20048;-56
2023/12/26 06:38:11;;;;;;;12.37;5.90;;;;;;;3.48;100.00;96470.84;5017923;28;20103;-59
2023/12/26 06:40:39;;;;;;;8.80;5.30;;;;;;;3.54;100.00;96476.34;5011686;28;20155;-60
2023/12/26 06:43:06;;;;;;;11.17;5.30;;;;;;;3.58;100.00;96480.19;5026428;28;20147;-60
2023/12/26 06:45:32;;;;;;;9.63;6.20;;;;;;;3.55;100.00;96478.78;5037606;28;20056;-58
2023/12/26 06:47:58;;;;;;;10.93;6.80;;;;;;;3.50;100.00;96486.41;5009832;28;20045;-56
2023/12/26 06:50:24;;;;;;;11.57;7.10;;;;;;;3.51;100.00;96487.22;4989909;28;20133;-60
2023/12/26 06:52:49;;;;;;;12.53;6.60;;;;;;;3.47;100.00;96487.56;5028847;28;20481;-56
2023/12/26 06:55:15;;;;;;;12.33;7.80;;;;;;;3.47;100.00;96489.41;5021029;28;20045;-59
2023/12/26 06:57:41;;;;;;;13.13;6.93;;;;;;;3.51;100.00;96497.72;5038763;28;20053;-56
2023/12/26 07:00:07;;;;;;;12.93;6.30;;;;;;;3.56;100.00;96500.56;5012268;28;20124;-65
2023/12/26 07:02:34;;;;;;;10.30;5.83;;;;;;;3.57;100.00;96497.75;4998145;28;20069;-65
2023/12/26 07:05:00;;;;;;;9.13;5.60;;;;;;;3.61;100.00;96504.25;5023200;28;20041;-65
2023/12/26 07:07:26;;;;;;;10.53;6.00;;;;;;;3.68;100.00;96505.09;5008994;28;20854;-64
2023/12/26 07:09:52;;;;;;;9.47;6.50;;;;;;;3.67;100.00;96511.34;5000258;28;20045;-62
2023/12/26 07:12:18;;;;;;;11.00;6.20;;;;;;;3.71;100.00;96514.38;4995323;28;20041;-65
2023/12/26 07:14:44;;;;;;;9.50;6.43;;;;;;;3.72;100.00;96513.41;5000724;28;20087;-66
2023/12/26 07:17:09;;;;;;;8.83;5.40;;;;;;;3.79;100.00;96516.88;4999950;28;20037;-65
2023/12/26 07:19:35;;;;;;;12.50;6.70;;;;;;;3.85;100.00;96521.34;5024411;28;20045;-65
2023/12/26 07:22:01;;;;;;;8.67;5.83;;;;;;;3.86;100.00;96529.03;5015273;28;20135;-65
2023/12/26 07:24:27;;;;;;;7.40;5.13;;;;;;;3.95;100.00;96532.34;5000692;28;20128;-65
2023/12/26 07:26:53;;;;;;;8.60;5.57;;;;;;;3.98;100.00;96530.16;5008795;28;20036;-65
2023/12/26 07:29:19;;;;;;;9.83;5.97;;;;;;;4.12;100.00;96546.78;5029573;28;20048;-65
2023/12/26 07:31:45;;;;;;;8.13;5.43;;;;;;;4.15;100.00;96547.19;5005344;28;20395;-67
2023/12/26 07:34:10;;;;;;;8.73;5.20;;;;;;;4.16;100.00;96551.47;5019449;28;20491;-65
2023/12/26 07:36:37;;;;;;;5.73;4.30;;;;;;;4.21;100.00;96558.75;5008544;28;20041;-63
2023/12/26 07:39:04;;;;;;;7.90;5.65;;;;;;;4.17;100.00;96568.00;5015587;28;20064;-65
2023/12/26 07:41:32;;;;;;;7.30;5.70;;;;;;;4.15;100.00;96570.03;4996489;28;20079;-65
2023/12/26 07:43:58;;;;;;;9.33;5.03;;;;;;;4.16;100.00;96582.97;5002746;28;20799;-66
2023/12/26 07:46:24;;;;;;;7.32;4.82;;;;;;;4.27;100.00;96576.38;5020948;28;20101;-66
2023/12/26 07:48:50;;;;;;;7.87;4.80;;;;;;;4.38;100.00;96586.34;5002854;28;20036;-65
2023/12/26 07:51:16;;;;;;;7.30;4.85;;;;;;;4.36;100.00;96588.34;5035611;28;20054;-66
2023/12/26 07:53:41;;;;;;;8.10;5.17;;;;;;;4.43;100.00;96595.25;5003478;28;20135;-65
2023/12/26 07:56:07;;;;;;;6.97;4.50;;;;;;;4.47;100.00;96585.16;5020125;28;20063;-64
2023/12/26 07:58:34;;;;;;;5.80;4.38;;;;;;;4.46;100.00;96599.31;5019947;28;20135;-65
2023/12/26 08:01:02;;;;;;;5.88;4.45;;;;;;;4.53;100.00;96600.16;5043731;28;20043;-62
2023/12/26 08:03:27;;;;;;;6.43;4.38;;;;;;;4.47;100.00;96601.75;5025537;28;20409;-64
2023/12/26 08:05:53;;;;;;;5.40;3.63;;;;;;;4.53;100.00;96611.47;5029988;28;20055;-67
2023/12/26 08:08:19;;;;;;;5.40;3.38;;;;;;;4.55;100.00;96604.19;5035387;28;20443;-65
2023/12/26 08:10:47;;;;;;;7.47;4.20;;;;;;;4.57;100.00;96617.13;5031427;28;20097;-65
2023/12/26 08:13:13;;;;;;;5.63;3.53;;;;;;;4.58;100.00;96619.56;5051862;28;20382;-65
2023/12/26 08:15:39;;;;;;;4.78;3.20;;;;;;;4.62;100.00;96618.19;5019843;28;20047;-65
2023/12/26 08:18:05;;;;;;;6.82;3.30;;;;;;;4.61;100.00;96629.69;5036169;28;20051;-66
2023/12/26 08:20:33;;;;;;;4.60;2.70;;;;;;;4.67;100.00;96625.50;5019910;28;20049;-65
2023/12/26 08:22:59;;;;;;;3.70;2.60;;;;;;;4.64;100.00;96637.19;5025985;28;20055;-65
2023/12/26 08:25:25;;;;;;;9.05;3.55;;;;;;;4.55;100.00;96640.19;5052626;28;20090;-65
2023/12/26 08:27:51;;;;;;;5.18;3.20;;;;;;;4.49;100.00;96651.47;5003737;28;20068;-66
2023/12/26 08:30:19;;;;;;;5.00;2.80;;;;;;;4.45;100.00;96650.22;5019565;28;20040;-66
2023/12/26 08:32:45;;;;;;;5.28;2.83;;;;;;;4.50;100.00;96651.28;5020078;28;20155;-64
2023/12/26 08:35:10;;;;;;;3.47;2.38;;;;;;;4.55;100.00;96655.97;5002873;28;20083;-65
2023/12/26 08:37:36;;;;;;;2.95;2.50;;;;;;;4.53;100.00;96660.59;5019630;28;20037;-65
2023/12/26 08:40:03;;;;;;;3.17;2.40;;;;;;;4.60;100.00;96661.44;5011951;28;20111;-66
2023/12/26 08:42:30;;;;;;;2.25;1.98;;;;;;;4.67;100.00;96670.19;4979020;28;20161;-65
2023/12/26 08:44:55;;;;;;;2.97;2.22;;;;;;;4.71;100.00;96671.41;4979147;28;20388;-64
2023/12/26 08:47:21;;;;;;;2.17;1.85;;;;;;;4.86;100.00;96669.47;4979256;28;20061;-64
2023/12/26 08:49:47;;;;;;;3.03;1.98;;;;;;;4.85;100.00;96688.88;4979401;28;20103;-65
2023/12/26 08:52:14;;;;;;;2.58;1.90;;;;;;;4.89;100.00;96677.78;4979524;28;20073;-65
2023/12/26 08:54:42;;;;;;;2.42;1.88;;;;;;;5.02;100.00;96679.66;4995701;28;20832;-65
2023/12/26 08:57:08;;;;;;;2.53;1.80;;;;;;;5.00;100.00;96685.13;4978997;28;20041;-64
2023/12/26 08:59:34;;;;;;;2.22;1.90;;;;;;;5.04;100.00;96690.81;4963047;28;20049;-63
2023/12/26 09:02:00;;;;;;;3.28;1.67;;;;;;;4.98;100.00;96697.63;4979197;28;20136;-64
2023/12/26 09:04:26;;;;;;;4.00;1.80;;;;;;;5.01;100.00;96693.81;4995412;28;20080;-63
2023/12/26 09:06:55;;;;;;;2.83;1.70;;;;;;;5.04;100.00;96709.22;5011853;28;20189;-65
2023/12/26 09:09:21;;;;;;;2.10;1.90;;;;;;;4.90;100.00;96712.78;4995150;28;20053;-65
2023/12/26 09:11:46;;;;;;;3.67;1.48;;;;;;;4.75;100.00;96714.72;4995101;28;20041;-62
2023/12/26 09:14:15;;;;;;;1.75;1.50;;;;;;;4.79;100.00;96724.66;5019860;28;20114;-63
2023/12/26 09:16:41;;;;;;;1.65;1.40;;;;;;;4.72;100.00;96721.16;5011664;28;20048;-65
2023/12/26 09:19:06;;;;;;;1.40;1.10;;;;;;;4.69;100.00;96736.50;5018974;28;20041;-66
2023/12/26 09:21:32;;;;;;;2.78;1.50;;;;;;;4.67;100.00;96730.63;5019594;28;20422;-64
2023/12/26 09:23:58;;;;;;;2.88;1.45;;;;;;;4.70;100.00;96740.75;5003399;28;20041;-62
2023/12/26 09:26:24;;;;;;;1.73;1.48;;;;;;;4.71;100.00;96755.50;5019011;28;20165;-63
2023/12/26 09:28:50;;;;;;;2.10;1.30;;;;;;;4.76;100.00;96753.13;5011370;28;20141;-64
2023/12/26 09:31:16;;;;;;;1.50;1.40;;;;;;;4.65;100.00;96756.28;4964524;28;20057;-62
2023/12/26 09:33:42;;;;;;;2.58;1.50;;;;;;;4.65;100.00;96766.78;4998298;28;20461;-62
2023/12/26 09:36:08;;;;;;;3.47;1.42;;;;;;;4.65;100.00;96761.53;4998881;28;20076;-63
2023/12/26 09:38:34;;;;;;;1.67;1.45;;;;;;;4.65;100.00;96772.03;4966277;28;20143;-65
2023/12/26 09:41:00;;;;;;;1.50;1.00;;;;;;;4.66;100.00;96777.13;4981315;28;20515;-65
2023/12/26 09:43:26;;;;;;;1.33;1.23;;;;;;;4.72;100.00;96783.44;4986581;28;20050;-64
2023/12/26 09:45:52;;;;;;;5.65;1.67;;;;;;;4.64;100.00;96781.75;4965631;28;20053;-64
2023/12/26 09:48:22;;;;;;;2.38;1.33;;;;;;;4.70;100.00;96791.53;4965986;28;20045;-66
2023/12/26 09:50:49;;;;;;;1.23;1.13;;;;;;;4.75;100.00;96804.09;4977071;28;20037;-64
2023/12/26 09:53:17;;;;;;;1.45;1.35;;;;;;;4.77;100.00;96802.06;4963055;28;20060;-66
2023/12/26 09:55:44;;;;;;;2.88;1.20;;;;;;;4.78;100.00;96807.13;4998845;28;20041;-65
2023/12/26 09:58:09;;;;;;;4.75;1.58;;;;;;;4.71;100.00;96815.97;4966028;28;20501;-65
2023/12/26 10:00:36;;;;;;;1.50;1.40;;;;;;;4.83;100.00;96814.44;5020347;28;20072;-65
2023/12/26 10:03:03;;;;;;;1.80;1.60;;;;;;;4.89;100.00;96816.31;5031546;28;20051;-65
2023/12/26 10:05:28;;;;;;;2.67;1.48;;;;;;;4.76;100.00;96826.72;5062500;28;20062;-65
2023/12/26 10:07:54;;;;;;;3.22;1.60;;;;;;;4.69;100.00;96826.66;5018139;28;20037;-65
2023/12/26 10:10:21;;;;;;;2.95;1.52;;;;;;;4.73;100.00;96835.81;5037136;28;20514;-66
2023/12/26 10:12:47;;;;;;;2.95;1.67;;;;;;;4.72;100.00;96836.00;5035184;28;20460;-65
2023/12/26 10:15:13;;;;;;;2.63;1.85;;;;;;;4.70;100.00;96841.47;5019217;28;20111;-65
2023/12/26 10:17:42;;;;;;;2.50;1.60;;;;;;;4.67;100.00;96847.09;5026906;28;20883;-65
2023/12/26 10:20:09;;;;;;;2.03;1.70;;;;;;;4.66;100.00;96857.75;5010830;28;20032;-66
2023/12/26 10:22:37;;;;;;;1.90;1.73;;;;;;;4.55;100.00;96868.81;5029146;28;20053;-64
2023/12/26 10:25:03;;;;;;;2.85;1.58;;;;;;;4.56;100.00;96866.00;5036950;28;20033;-64
2023/12/26 10:27:29;;;;;;;2.25;1.70;;;;;;;4.59;100.00;96873.50;5018698;28;20044;-64
2023/12/26 10:29:57;;;;;;;2.10;1.50;;;;;;;4.53;100.00;96889.19;5037684;28;20178;-65
2023/12/26 10:32:26;;;;;;;1.42;1.15;;;;;;;4.49;100.00;96882.69;5038232;28;20040;-65
2023/12/26 10:34:56;;;;;;;1.20;1.10;;;;;;;4.48;100.00;96888.94;5054888;28;20059;-65
2023/12/26 10:37:25;;;;;;;2.85;1.10;;;;;;;4.48;100.00;96899.44;5053385;28;20044;-65
2023/12/26 10:39:52;;;;;;;1.13;1.10;;;;;;;4.49;100.00;96898.47;5020965;28;20072;-65
2023/12/26 10:42:19;;;;;;;1.50;1.00;;;;;;;4.35;100.00;96909.81;5037633;28;20036;-65
2023/12/26 10:45:06;;;;;;;1.13;1.00;;;;;;;4.46;100.00;96917.22;5020938;28;20152;-65
2023/12/26 10:47:33;;;;;;;1.30;1.20;;;;;;;4.39;100.00;96913.69;5020674;28;20044;-66
2023/12/26 10:50:01;;;;;;;1.20;1.10;;;;;;;4.34;100.00;96929.19;5037192;28;20685;-66
2023/12/26 10:52:28;;;;;;;1.00;1.00;;;;;;;4.33;100.00;96935.47;5037710;28;20047;-66
2023/12/26 10:54:58;;;;;;;1.63;1.15;;;;;;;4.34;100.00;96923.94;5020956;28;20083;-65
2023/12/26 10:57:25;;;;;;;;;;;;;;;4.39;100.00;96939.97;5070527;28;20048;-65
2023/12/26 13:53:16;;;;;;;1.95;1.70;;;;;;;2.74;100.00;97312.47;5060790;28;20086;-59
2023/12/26 13:56:20;;;;;;;1.93;1.70;;;;;;;2.78;100.00;97318.22;5020137;28;20610;-62
2023/12/26 13:59:23;;;;;;;1.70;1.60;;;;;;;2.76;100.00;97326.25;5019172;28;20036;-63
2023/12/26 14:02:27;;;;;;;1.40;1.30;;;;;;;2.66;100.00;97338.69;5020172;28;20090;-62
2023/12/26 14:05:31;;;;;;;1.60;1.50;;;;;;;2.68;100.00;97338.50;5019552;28;20131;-62
2023/12/26 14:08:34;;;;;;;1.60;1.47;;;;;;;2.67;100.00;97340.34;5028257;28;20106;-63
2023/12/26 14:11:37;;;;;;;1.70;1.60;;;;;;;2.63;100.00;97348.69;5038321;28;20406;-61
2023/12/26 14:14:44;;;;;;;2.47;2.27;;;;;;;2.63;100.00;97346.06;5038191;28;20052;-63
2023/12/26 14:17:49;;;;;;;2.20;2.00;;;;;;;2.62;100.00;97355.72;5038086;28;20478;-63
2023/12/26 14:20:53;;;;;;;1.80;1.70;;;;;;;2.62;100.00;97379.31;5038298;28;20048;-59
2023/12/26 14:23:59;;;;;;;2.00;1.60;;;;;;;2.55;100.00;97380.91;5037761;28;20052;-59
2023/12/26 14:27:06;;;;;;;2.77;1.77;;;;;;;2.50;100.00;97385.84;5038061;28;20058;-61